Holton, Michigan
Current Conditions -  °F | °C
As of 7:31 AM on Friday 24 Oct 2014 (Local Time) from KFFX Reporting Station
Overcast Overcast  
Wind Chill: 48°   Ceiling: 1800
Heat Index: 48°   Visibility: 7mi
Dew Point: 46°   Wind: 0mph
Humidity: 92%   Direction: NA
Pressure: 30.02"   Gusts: NA
Location:  43.41°N, 86.08°W
Report Text: KFFX 241131Z AUTO 00000KT 7SM OVC018 09/08 A3002 RMK AO2 T00880075
Loading
Personal Weather Stations






























Interactive Weather Map New forecast layout! Learn more

10-Day Weather Forecast

Advertisements
Track Severe Weather on mobile